Time;durP1;ratioP1;P1;durP2;ratioP2;P2;SDS_P1;SDS_P2;PMS_P1;PMS_P2;Temp;Humidity;BMP_temperature;BMP_pressure;BME280_temperature;BME280_humidity;BME280_pressure;Samples;Min_cycle;Max_cycle;Signal;HPM_P1;HPM_P2
2024/01/01 00:00:08;;;;;;;121.85;52.55;;;;;;;10.75;nan;99300.63;4820753;29;20078;-68
2024/01/01 00:02:41;;;;;;;119.60;51.63;;;;;;;10.75;nan;99298.00;4816600;29;20073;-68
2024/01/01 00:05:11;;;;;;;115.97;52.05;;;;;;;10.76;nan;99304.13;4819695;29;20547;-70
2024/01/01 00:07:41;;;;;;;118.78;51.70;;;;;;;10.75;nan;99305.94;4821106;29;20737;-68
2024/01/01 00:10:10;;;;;;;113.47;51.83;;;;;;;10.62;nan;99307.56;4820200;29;20051;-71
2024/01/01 00:12:40;;;;;;;116.75;52.28;;;;;;;10.65;nan;99308.03;4818462;29;20514;-69
2024/01/01 00:15:09;;;;;;;130.88;55.03;;;;;;;10.68;nan;99309.47;4819480;29;20055;-70
2024/01/01 00:17:40;;;;;;;125.05;52.95;;;;;;;10.69;nan;99300.53;4819122;29;20074;-69
2024/01/01 00:20:12;;;;;;;126.80;54.15;;;;;;;10.70;nan;99305.69;4820357;29;20055;-69
2024/01/01 00:22:44;;;;;;;119.35;53.70;;;;;;;10.74;nan;99306.97;4816516;29;20050;-70
2024/01/01 00:25:13;;;;;;;129.85;53.25;;;;;;;10.55;nan;99309.25;4818869;29;20523;-69
2024/01/01 00:27:42;;;;;;;129.52;54.67;;;;;;;10.45;nan;99306.84;4817735;29;20126;-67
2024/01/01 00:30:12;;;;;;;123.53;53.75;;;;;;;10.49;nan;99297.53;4817041;29;20146;-68
2024/01/01 00:32:42;;;;;;;131.30;53.33;;;;;;;10.63;nan;99306.53;4811759;29;20081;-69
2024/01/01 00:35:11;;;;;;;131.98;56.15;;;;;;;10.64;nan;99303.72;4814681;29;20054;-70
2024/01/01 00:37:41;;;;;;;124.15;55.30;;;;;;;10.69;nan;99304.03;4815626;29;20050;-70
2024/01/01 00:40:11;;;;;;;131.43;55.35;;;;;;;10.66;nan;99312.34;4815966;29;20046;-70
2024/01/01 00:42:42;;;;;;;131.85;56.95;;;;;;;10.74;nan;99320.22;4815760;29;20046;-67
2024/01/01 00:45:12;;;;;;;143.88;55.78;;;;;;;10.66;nan;99317.63;4814567;29;20502;-70
2024/01/01 00:47:41;;;;;;;133.05;54.67;;;;;;;10.69;nan;99316.44;4814320;29;20051;-71
2024/01/01 00:50:11;;;;;;;132.73;51.83;;;;;;;10.66;nan;99320.28;4815230;29;20157;-69
2024/01/01 00:52:41;;;;;;;129.32;54.13;;;;;;;10.67;nan;99324.56;4816710;29;20130;-71
2024/01/01 00:55:10;;;;;;;134.10;49.80;;;;;;;10.66;nan;99319.47;4816954;29;20054;-69
2024/01/01 00:57:40;;;;;;;128.52;51.95;;;;;;;10.59;nan;99329.91;4813315;29;20096;-71
2024/01/01 01:00:11;;;;;;;118.55;49.42;;;;;;;10.59;nan;99329.91;4823493;29;20070;-71
2024/01/01 01:02:41;;;;;;;120.90;51.03;;;;;;;10.56;nan;99330.28;4806450;29;20089;-71
2024/01/01 01:05:10;;;;;;;126.35;51.72;;;;;;;10.59;nan;99337.03;4814894;29;20066;-70
2024/01/01 01:07:40;;;;;;;119.38;49.45;;;;;;;10.57;nan;99336.41;4814486;29;20043;-70
2024/01/01 01:10:09;;;;;;;128.80;50.33;;;;;;;10.54;nan;99331.44;4816016;29;20058;-71
2024/01/01 01:12:39;;;;;;;123.15;49.92;;;;;;;10.64;nan;99330.22;4816947;29;20065;-71
2024/01/01 01:15:09;;;;;;;130.20;50.17;;;;;;;10.54;nan;99331.44;4811673;29;20134;-71
2024/01/01 01:17:39;;;;;;;123.32;50.05;;;;;;;10.57;nan;99329.28;4817252;29;20065;-71
2024/01/01 01:20:08;;;;;;;126.80;49.90;;;;;;;10.52;nan;99330.81;4816292;29;20110;-71
2024/01/01 01:22:38;;;;;;;127.60;50.58;;;;;;;10.49;nan;99333.81;4818103;29;20057;-69
2024/01/01 01:25:09;;;;;;;116.05;48.42;;;;;;;10.56;nan;99342.69;4818206;29;20074;-69
2024/01/01 01:27:41;;;;;;;125.63;51.67;;;;;;;10.58;nan;99348.63;4819722;29;20054;-71
2024/01/01 01:30:11;;;;;;;122.63;52.33;;;;;;;10.26;nan;99347.03;4816577;29;20054;-71
2024/01/01 01:32:41;;;;;;;129.88;51.78;;;;;;;10.56;nan;99346.16;4815307;29;20054;-71
2024/01/01 01:35:11;;;;;;;127.85;51.65;;;;;;;10.61;nan;99354.41;4808167;29;20051;-71
2024/01/01 01:37:40;;;;;;;130.73;52.70;;;;;;;10.44;nan;99344.94;4818218;29;20724;-71
2024/01/01 01:40:10;;;;;;;133.35;52.50;;;;;;;10.28;nan;99351.16;4815472;29;20074;-71
2024/01/01 01:42:45;;;;;;;123.75;48.50;;;;;;;10.30;nan;99354.47;4810800;29;20045;-71
2024/01/01 01:45:14;;;;;;;131.25;54.22;;;;;;;10.26;nan;99354.97;4814242;29;20566;-71
2024/01/01 01:47:44;;;;;;;136.25;53.53;;;;;;;10.35;nan;99368.00;4817499;29;20049;-71
2024/01/01 01:50:14;;;;;;;127.68;51.13;;;;;;;10.39;nan;99379.06;4813814;29;20157;-71
2024/01/01 01:52:44;;;;;;;123.78;48.17;;;;;;;10.28;nan;99369.69;4829033;29;20050;-71
2024/01/01 01:55:21;;;;;;;118.18;49.15;;;;;;;10.39;nan;99376.41;4814282;29;20058;-69
2024/01/01 01:57:51;;;;;;;123.15;48.55;;;;;;;10.44;nan;99381.19;4826982;29;20050;-70
2024/01/01 02:00:21;;;;;;;119.40;49.30;;;;;;;10.27;nan;99383.06;4814984;29;20062;-70
2024/01/01 02:02:54;;;;;;;114.82;47.92;;;;;;;10.30;nan;99382.75;4817384;29;20152;-70
2024/01/01 02:05:24;;;;;;;109.97;49.10;;;;;;;10.31;nan;99387.84;4808041;29;20059;-70
2024/01/01 02:07:53;;;;;;;124.00;50.03;;;;;;;10.15;nan;99384.44;4819016;29;20570;-70
2024/01/01 02:10:23;;;;;;;118.93;47.75;;;;;;;10.19;nan;99386.59;4811486;29;20051;-70
2024/01/01 02:12:52;;;;;;;118.88;46.83;;;;;;;10.21;nan;99381.97;4811899;29;20051;-70
2024/01/01 02:15:22;;;;;;;123.57;49.45;;;;;;;10.28;nan;99392.69;4813457;29;20055;-70
2024/01/01 02:17:52;;;;;;;105.72;46.25;;;;;;;10.22;nan;99393.38;4819298;29;20060;-70
2024/01/01 02:20:22;;;;;;;115.88;48.72;;;;;;;10.35;nan;99397.13;4812208;29;20062;-70
2024/01/01 02:22:56;;;;;;;116.88;48.25;;;;;;;10.41;nan;99403.53;4815776;29;20083;-70
2024/01/01 02:25:26;;;;;;;118.15;48.05;;;;;;;10.48;nan;99404.50;4810510;29;20089;-71
2024/01/01 02:27:55;;;;;;;121.47;48.70;;;;;;;10.44;nan;99397.91;4818925;29;20058;-70
2024/01/01 02:30:25;;;;;;;110.10;48.22;;;;;;;10.47;nan;99404.66;4815104;29;20054;-70
2024/01/01 02:32:54;;;;;;;113.00;47.20;;;;;;;10.32;nan;99393.97;4816473;29;20061;-70
2024/01/01 02:35:24;;;;;;;109.72;46.97;;;;;;;10.42;nan;99402.53;4814575;29;20074;-70
2024/01/01 02:37:53;;;;;;;103.90;45.85;;;;;;;10.28;nan;99404.09;4818468;29;20070;-70
2024/01/01 02:40:23;;;;;;;106.28;48.25;;;;;;;10.40;nan;99409.00;4813740;29;20414;-70
2024/01/01 02:42:52;;;;;;;122.30;50.50;;;;;;;10.39;nan;99402.88;4816092;29;20062;-70
2024/01/01 02:45:24;;;;;;;112.15;48.55;;;;;;;10.39;nan;99404.72;4813480;29;20062;-70
2024/01/01 02:47:53;;;;;;;108.13;46.70;;;;;;;10.35;nan;99412.19;4820232;29;20060;-70
2024/01/01 02:50:25;;;;;;;118.78;48.80;;;;;;;10.47;nan;99418.72;4813773;29;20150;-71
2024/01/01 02:52:54;;;;;;;119.30;49.88;;;;;;;10.24;nan;99429.25;4816516;29;20069;-70
2024/01/01 02:55:23;;;;;;;116.60;51.65;;;;;;;10.24;nan;99429.25;4815508;29;20543;-70
2024/01/01 02:57:53;;;;;;;136.73;54.47;;;;;;;10.55;nan;99436.38;4817953;29;20060;-70
2024/01/01 03:00:24;;;;;;;129.68;55.15;;;;;;;10.35;nan;99420.94;4812765;29;20058;-70
2024/01/01 03:02:54;;;;;;;123.63;53.92;;;;;;;10.28;nan;99427.09;4815088;29;20050;-71
2024/01/01 03:05:25;;;;;;;146.75;59.95;;;;;;;10.27;nan;99434.19;4812854;29;20050;-70
2024/01/01 03:07:55;;;;;;;166.18;64.57;;;;;;;10.32;nan;99429.22;4820203;29;20475;-70
2024/01/01 03:10:25;;;;;;;159.45;62.72;;;;;;;10.29;nan;99434.03;4809081;29;20062;-70
2024/01/01 03:12:54;;;;;;;158.52;62.45;;;;;;;10.22;nan;99436.53;4817523;29;20061;-70
2024/01/01 03:15:24;;;;;;;160.00;63.95;;;;;;;10.45;nan;99431.31;4810299;29;20046;-68
2024/01/01 03:17:54;;;;;;;170.73;66.50;;;;;;;10.19;nan;99433.41;4817114;29;20804;-70
2024/01/01 03:20:30;;;;;;;169.50;67.43;;;;;;;10.38;nan;99432.19;4808860;29;20118;-70
2024/01/01 03:23:01;;;;;;;157.18;64.03;;;;;;;10.44;nan;99434.16;4815783;29;20042;-70
2024/01/01 03:25:31;;;;;;;153.85;64.60;;;;;;;10.27;nan;99436.03;4829270;29;20392;-70
2024/01/01 03:28:01;;;;;;;158.45;62.95;;;;;;;10.66;nan;99438.66;4818577;29;20085;-70
2024/01/01 03:30:31;;;;;;;176.32;68.10;;;;;;;10.61;nan;99444.47;4817364;29;20039;-71
2024/01/01 03:33:01;;;;;;;174.30;68.25;;;;;;;10.47;nan;99441.72;4817929;29;20046;-70
2024/01/01 03:35:31;;;;;;;179.48;68.53;;;;;;;10.56;nan;99452.13;4817153;29;20145;-69
2024/01/01 03:38:02;;;;;;;183.07;68.18;;;;;;;10.56;nan;99452.13;4819694;29;20046;-70
2024/01/01 03:40:31;;;;;;;177.30;68.85;;;;;;;10.65;nan;99450.25;4817319;29;20050;-70
2024/01/01 03:43:01;;;;;;;166.45;65.10;;;;;;;10.66;nan;99449.25;4820840;29;20058;-72
2024/01/01 03:45:30;;;;;;;176.50;68.88;;;;;;;10.51;nan;99450.97;4817881;29;20131;-70
2024/01/01 03:48:00;;;;;;;159.88;67.07;;;;;;;10.70;nan;99461.16;4815163;29;20617;-70
2024/01/01 03:50:29;;;;;;;157.82;66.97;;;;;;;10.44;nan;99464.09;4817467;29;20479;-70
2024/01/01 03:52:59;;;;;;;175.15;68.55;;;;;;;10.55;nan;99466.34;4818983;29;20107;-70
2024/01/01 03:55:29;;;;;;;164.57;68.32;;;;;;;10.53;nan;99468.38;4818556;29;20077;-70
2024/01/01 03:57:58;;;;;;;171.00;68.03;;;;;;;10.53;nan;99463.06;4818103;29;20111;-70
2024/01/01 04:00:28;;;;;;;166.10;67.82;;;;;;;10.51;nan;99464.22;4820399;29;20733;-69
2024/01/01 04:02:57;;;;;;;180.15;70.40;;;;;;;10.53;nan;99462.25;4820007;29;20133;-70
2024/01/01 04:05:27;;;;;;;179.43;71.35;;;;;;;10.59;nan;99467.66;4816303;29;20065;-68
2024/01/01 04:07:57;;;;;;;159.50;64.80;;;;;;;10.52;nan;99477.31;4817780;29;20141;-68
2024/01/01 04:10:26;;;;;;;168.18;67.13;;;;;;;10.72;nan;99475.84;4816010;29;20051;-69
2024/01/01 04:12:55;;;;;;;148.30;62.72;;;;;;;10.63;nan;99490.13;4817696;29;20062;-69
2024/01/01 04:15:25;;;;;;;144.63;61.20;;;;;;;10.70;nan;99488.47;4804667;29;20486;-69
2024/01/01 04:17:55;;;;;;;158.43;63.80;;;;;;;10.79;nan;99490.06;4812876;29;20081;-68
2024/01/01 04:20:24;;;;;;;146.60;63.60;;;;;;;10.75;nan;99494.03;4810369;29;20093;-69
2024/01/01 04:22:54;;;;;;;135.80;58.83;;;;;;;10.85;nan;99488.53;4834665;29;20727;-70
2024/01/01 04:25:23;;;;;;;128.98;58.38;;;;;;;10.90;nan;99496.78;4816383;29;20262;-68
2024/01/01 04:27:53;;;;;;;131.52;56.92;;;;;;;10.70;nan;99500.88;4815085;29;20141;-68
2024/01/01 04:30:22;;;;;;;140.90;60.00;;;;;;;10.87;nan;99506.91;4818772;29;20074;-73
2024/01/01 04:32:52;;;;;;;144.88;61.85;;;;;;;10.85;nan;99503.59;4818207;29;20491;-73
2024/01/01 04:35:21;;;;;;;146.30;58.70;;;;;;;10.77;nan;99501.81;4813982;29;20141;-70
2024/01/01 04:37:51;;;;;;;139.82;58.20;;;;;;;10.91;nan;99502.91;4817209;29;20099;-69
2024/01/01 04:40:20;;;;;;;145.25;61.85;;;;;;;10.80;nan;99507.59;4816129;29;20050;-68
2024/01/01 04:42:50;;;;;;;160.23;67.32;;;;;;;10.99;nan;99510.81;4817767;29;20782;-68
2024/01/01 04:45:19;;;;;;;160.02;66.97;;;;;;;10.66;nan;99511.00;4816471;29;20061;-68
2024/01/01 04:47:49;;;;;;;154.90;67.65;;;;;;;10.81;nan;99508.44;4817496;29;20050;-69
2024/01/01 04:50:18;;;;;;;148.07;63.25;;;;;;;10.69;nan;99512.47;4816984;29;20054;-68
2024/01/01 04:52:48;;;;;;;140.07;61.72;;;;;;;10.70;nan;99522.06;4816622;29;20054;-68
2024/01/01 04:55:20;;;;;;;150.50;61.63;;;;;;;10.77;nan;99520.38;4813500;29;20438;-68
2024/01/01 04:57:55;;;;;;;136.27;60.70;;;;;;;10.29;nan;99524.88;4816203;29;20523;-69
2024/01/01 05:00:25;;;;;;;139.73;60.80;;;;;;;10.70;nan;99524.72;4816723;29;20057;-69
2024/01/01 05:02:56;;;;;;;134.95;59.50;;;;;;;10.79;nan;99527.16;4817861;29;20176;-69
2024/01/01 05:05:25;;;;;;;134.27;56.72;;;;;;;10.71;nan;99529.84;4816872;29;20058;-67
2024/01/01 05:07:54;;;;;;;136.55;58.65;;;;;;;10.95;nan;99525.41;4815661;29;20748;-70
2024/01/01 05:10:24;;;;;;;126.78;55.58;;;;;;;10.86;nan;99529.09;4815255;29;20054;-69
2024/01/01 05:12:54;;;;;;;126.15;58.97;;;;;;;10.65;nan;99530.53;4816801;29;20582;-70
2024/01/01 05:15:23;;;;;;;122.22;54.75;;;;;;;10.92;nan;99533.72;4814349;29;20068;-70
2024/01/01 05:17:53;;;;;;;123.93;55.85;;;;;;;11.12;nan;99526.97;4816980;29;20046;-72
2024/01/01 05:20:22;;;;;;;128.05;55.03;;;;;;;10.97;nan;99523.44;4816305;29;20169;-71
2024/01/01 05:22:52;;;;;;;131.15;58.58;;;;;;;10.90;nan;99536.53;4809684;29;20814;-71
2024/01/01 05:25:22;;;;;;;140.23;58.65;;;;;;;11.07;nan;99522.19;4810845;29;20082;-71
2024/01/01 05:27:52;;;;;;;137.32;59.05;;;;;;;10.94;nan;99526.41;4815304;29;20050;-72
2024/01/01 05:30:21;;;;;;;126.68;56.47;;;;;;;10.75;nan;99525.03;4815129;29;20054;-71
2024/01/01 05:32:50;;;;;;;133.27;59.42;;;;;;;10.60;nan;99526.75;4816014;29;20058;-74
2024/01/01 05:35:20;;;;;;;126.30;55.00;;;;;;;10.68;nan;99529.34;4812444;29;20439;-71
2024/01/01 05:37:50;;;;;;;142.98;59.75;;;;;;;11.08;nan;99517.72;4814721;29;20064;-75
2024/01/01 05:40:19;;;;;;;138.88;57.53;;;;;;;10.92;nan;99525.75;4815633;29;20130;-74
2024/01/01 05:42:48;;;;;;;129.95;57.35;;;;;;;10.86;nan;99526.44;4814926;29;20046;-71
2024/01/01 05:45:18;;;;;;;144.23;60.85;;;;;;;10.91;nan;99513.50;4814089;29;20139;-70
2024/01/01 05:47:47;;;;;;;134.23;58.17;;;;;;;11.15;nan;99516.81;4815595;29;20689;-68
2024/01/01 05:50:19;;;;;;;142.98;61.58;;;;;;;10.94;nan;99511.31;4815058;29;20517;-67
2024/01/01 05:52:48;;;;;;;137.70;58.83;;;;;;;11.05;nan;99504.81;4816350;29;20046;-69
2024/01/01 05:55:18;;;;;;;146.73;60.20;;;;;;;11.13;nan;99504.75;4811604;29;20142;-68
2024/01/01 05:57:47;;;;;;;139.30;60.40;;;;;;;10.77;nan;99488.56;4809915;29;20043;-70
2024/01/01 06:00:19;;;;;;;142.50;59.28;;;;;;;11.12;nan;99490.66;4814404;29;20062;-68
2024/01/01 06:02:48;;;;;;;147.60;61.33;;;;;;;11.25;nan;99485.59;4811743;29;20057;-65
2024/01/01 06:05:17;;;;;;;141.25;59.40;;;;;;;11.20;nan;99477.34;4801944;29;20058;-69
2024/01/01 06:07:47;;;;;;;136.43;59.08;;;;;;;11.04;nan;99468.69;4808403;29;20122;-70
2024/01/01 06:10:17;;;;;;;144.25;59.78;;;;;;;10.94;nan;99468.09;4812281;29;20046;-70
2024/01/01 06:12:47;;;;;;;138.60;60.55;;;;;;;11.10;nan;99471.47;4813996;29;20764;-70
2024/01/01 06:15:17;;;;;;;140.55;59.40;;;;;;;10.93;nan;99467.28;4815640;29;20114;-71
2024/01/01 06:17:47;;;;;;;138.52;59.55;;;;;;;11.16;nan;99459.31;4814841;29;20050;-70
2024/01/01 06:20:16;;;;;;;139.63;60.80;;;;;;;11.39;nan;99452.19;4811015;29;20531;-70
2024/01/01 06:22:49;;;;;;;143.98;59.80;;;;;;;11.43;nan;99458.78;4815180;29;20668;-70
2024/01/01 06:25:18;;;;;;;146.98;63.53;;;;;;;11.58;nan;99454.34;4811451;29;20061;-69
2024/01/01 06:27:49;;;;;;;137.68;60.60;;;;;;;11.47;nan;99446.78;4814010;29;20883;-70
2024/01/01 06:30:20;;;;;;;130.07;58.30;;;;;;;11.67;nan;99439.16;4813714;29;20060;-70
2024/01/01 06:32:49;;;;;;;139.95;60.45;;;;;;;11.54;nan;99444.25;4815356;29;20050;-70
2024/01/01 06:35:18;;;;;;;136.10;59.97;;;;;;;11.41;nan;99428.97;4815665;29;20101;-70
2024/01/01 06:37:48;;;;;;;143.55;60.60;;;;;;;11.51;nan;99431.34;4817816;29;20081;-70
2024/01/01 06:40:17;;;;;;;147.70;60.63;;;;;;;11.33;nan;99420.25;4810037;29;20118;-70
2024/01/01 06:42:47;;;;;;;140.23;61.03;;;;;;;11.71;nan;99409.44;4811230;29;20152;-70
2024/01/01 06:45:17;;;;;;;141.85;62.38;;;;;;;11.61;nan;99416.00;4802310;29;20062;-70
2024/01/01 06:47:48;;;;;;;136.23;57.97;;;;;;;11.70;nan;99405.13;4811443;29;20070;-72
2024/01/01 06:50:17;;;;;;;128.35;58.40;;;;;;;11.89;nan;99406.44;4804125;29;20054;-73
2024/01/01 06:52:47;;;;;;;141.45;59.63;;;;;;;12.08;nan;99399.75;4803293;29;20058;-70
2024/01/01 06:55:17;;;;;;;138.07;61.45;;;;;;;11.83;nan;99398.38;4805844;29;20126;-70
2024/01/01 06:57:47;;;;;;;130.05;58.95;;;;;;;11.59;nan;99391.50;4809570;29;20051;-70
2024/01/01 07:00:17;;;;;;;145.27;60.38;;;;;;;11.68;nan;99393.06;4812003;29;20093;-70
2024/01/01 07:02:47;;;;;;;135.75;58.47;;;;;;;11.53;nan;99386.91;4810373;29;20597;-71
2024/01/01 07:05:16;;;;;;;147.50;61.58;;;;;;;11.98;nan;99383.28;4817736;29;20069;-69
2024/01/01 07:07:46;;;;;;;151.02;64.43;;;;;;;12.01;nan;99380.25;4817887;29;20145;-71
2024/01/01 07:10:15;;;;;;;144.07;60.75;;;;;;;11.85;nan;99381.28;4817764;29;20062;-70
2024/01/01 07:12:45;;;;;;;141.00;62.95;;;;;;;12.02;nan;99376.59;4814114;29;20420;-71
2024/01/01 07:15:14;;;;;;;134.70;58.30;;;;;;;12.01;nan;99377.59;4809530;29;20197;-71
2024/01/01 07:17:44;;;;;;;141.98;62.22;;;;;;;12.18;nan;99371.06;4816302;29;20054;-70
2024/01/01 07:20:13;;;;;;;144.93;61.50;;;;;;;12.20;nan;99373.53;4810836;29;20058;-70
2024/01/01 07:22:43;;;;;;;135.73;60.55;;;;;;;12.47;nan;99368.34;4818321;29;20046;-71
2024/01/01 07:25:12;;;;;;;141.02;61.60;;;;;;;12.45;nan;99367.69;4810846;29;20084;-70
2024/01/01 07:27:42;;;;;;;135.27;60.80;;;;;;;12.46;nan;99373.84;4806785;29;20395;-69
2024/01/01 07:30:11;;;;;;;141.07;59.97;;;;;;;12.26;nan;99367.50;4819778;29;20054;-69
2024/01/01 07:32:42;;;;;;;136.30;60.88;;;;;;;12.62;nan;99373.59;4831049;29;20062;-68
2024/01/01 07:35:11;;;;;;;136.88;61.53;;;;;;;12.40;nan;99370.09;4796760;29;20833;-69
2024/01/01 07:37:41;;;;;;;144.73;63.20;;;;;;;12.23;nan;99373.97;4811081;29;20107;-70
2024/01/01 07:40:11;;;;;;;138.60;62.40;;;;;;;12.35;nan;99366.34;4811608;29;20059;-72
2024/01/01 07:42:41;;;;;;;144.02;61.28;;;;;;;12.48;nan;99362.00;4812081;29;20053;-71
2024/01/01 07:45:10;;;;;;;150.52;64.75;;;;;;;12.45;nan;99356.25;4815988;29;20050;-70
2024/01/01 07:47:39;;;;;;;151.07;65.70;;;;;;;12.65;nan;99356.47;4815045;29;20056;-72
2024/01/01 07:50:09;;;;;;;149.45;62.05;;;;;;;12.49;nan;99342.41;4831184;29;20190;-71
2024/01/01 07:52:39;;;;;;;141.48;61.70;;;;;;;12.53;nan;99337.53;4818424;29;20050;-72
2024/01/01 07:55:10;;;;;;;136.88;63.45;;;;;;;12.59;nan;99340.25;4827884;29;20476;-74
2024/01/01 07:57:40;;;;;;;149.63;62.70;;;;;;;12.74;nan;99344.69;4812698;29;20068;-70
2024/01/01 08:00:11;;;;;;;143.40;62.28;;;;;;;12.77;nan;99344.31;4813814;29;21197;-72
2024/01/01 08:02:42;;;;;;;164.55;65.03;;;;;;;12.83;nan;99343.56;4812061;29;20570;-73
2024/01/01 08:05:12;;;;;;;157.75;67.10;;;;;;;12.80;nan;99333.28;4814508;29;20058;-73
2024/01/01 08:07:47;;;;;;;146.43;65.47;;;;;;;12.89;nan;99332.97;4813335;29;20051;-73
2024/01/01 08:10:17;;;;;;;156.15;69.43;;;;;;;12.93;nan;99328.06;4813523;29;20063;-72
2024/01/01 08:12:47;;;;;;;152.65;65.57;;;;;;;12.84;nan;99324.72;4811299;29;20375;-72
2024/01/01 08:15:17;;;;;;;158.15;67.38;;;;;;;12.93;nan;99330.72;4815176;29;20047;-72
2024/01/01 08:17:46;;;;;;;146.82;68.22;;;;;;;12.92;nan;99323.78;4810094;29;20165;-72
2024/01/01 08:20:16;;;;;;;154.73;67.25;;;;;;;12.90;nan;99323.16;4808915;29;20149;-72
2024/01/01 08:22:45;;;;;;;156.35;71.00;;;;;;;12.98;nan;99325.66;4808163;29;20061;-71
2024/01/01 08:25:15;;;;;;;149.70;70.03;;;;;;;12.85;nan;99314.94;4809359;29;20742;-73
2024/01/01 08:27:44;;;;;;;150.35;66.50;;;;;;;12.80;nan;99310.19;4801535;29;20088;-71
2024/01/01 08:30:14;;;;;;;150.35;67.95;;;;;;;12.75;nan;99312.59;4805585;29;20954;-71
2024/01/01 08:32:44;;;;;;;157.35;68.78;;;;;;;12.78;nan;99309.56;4806625;29;20406;-71
2024/01/01 08:35:14;;;;;;;146.73;69.20;;;;;;;12.62;nan;99309.81;4808082;29;20344;-70
2024/01/01 08:37:44;;;;;;;153.95;68.57;;;;;;;12.69;nan;99309.88;4814489;29;20562;-72
2024/01/01 08:40:13;;;;;;;154.48;69.40;;;;;;;12.71;nan;99307.84;4795793;29;20393;-71
2024/01/01 08:42:43;;;;;;;150.57;68.82;;;;;;;13.01;nan;99307.47;4797092;29;20253;-71
2024/01/01 08:45:13;;;;;;;159.73;71.75;;;;;;;12.80;nan;99302.22;4814852;29;20043;-70
2024/01/01 08:47:42;;;;;;;153.02;68.30;;;;;;;12.71;nan;99305.19;4811154;29;20153;-70
2024/01/01 08:50:13;;;;;;;156.23;68.80;;;;;;;12.80;nan;99296.06;4816288;29;20530;-70
2024/01/01 08:52:44;;;;;;;158.15;70.20;;;;;;;12.80;nan;99296.06;4810512;29;20174;-70
2024/01/01 08:55:14;;;;;;;156.05;67.97;;;;;;;12.90;nan;99294.72;4825172;29;20130;-70
2024/01/01 08:57:44;;;;;;;160.80;68.35;;;;;;;13.39;nan;99293.88;4812323;29;20114;-71
2024/01/01 09:00:16;;;;;;;150.05;66.10;;;;;;;12.92;nan;99287.38;4814258;29;20050;-71
2024/01/01 09:02:47;;;;;;;140.48;67.20;;;;;;;12.97;nan;99276.97;4807182;29;20046;-70
2024/01/01 09:05:16;;;;;;;152.15;66.70;;;;;;;12.80;nan;99280.13;4812070;29;20058;-71
2024/01/01 09:07:46;;;;;;;150.50;68.05;;;;;;;12.99;nan;99276.78;4820242;29;20420;-70
2024/01/01 09:10:17;;;;;;;142.98;66.50;;;;;;;12.97;nan;99270.84;4808666;29;20153;-70
2024/01/01 09:12:46;;;;;;;150.88;67.88;;;;;;;12.91;nan;99268.97;4805928;29;20110;-70
2024/01/01 09:15:16;;;;;;;142.88;68.07;;;;;;;12.95;nan;99260.41;4814260;29;20093;-70
2024/01/01 09:17:46;;;;;;;140.77;64.95;;;;;;;13.03;nan;99260.25;4816562;29;20053;-70
2024/01/01 09:20:16;;;;;;;156.00;68.15;;;;;;;12.91;nan;99248.53;4813211;29;20833;-70
2024/01/01 09:22:47;;;;;;;153.40;70.22;;;;;;;12.93;nan;99253.63;4812233;29;20050;-70
2024/01/01 09:25:20;;;;;;;154.57;67.93;;;;;;;12.77;nan;99256.59;4797311;29;20074;-70
2024/01/01 09:27:50;;;;;;;151.63;67.68;;;;;;;12.77;nan;99248.63;4802644;29;20046;-70
2024/01/01 09:30:20;;;;;;;137.13;67.05;;;;;;;12.87;nan;99257.09;4812794;29;20123;-70
2024/01/01 09:32:49;;;;;;;148.20;68.80;;;;;;;12.90;nan;99249.53;4808506;29;20061;-70
2024/01/01 09:35:19;;;;;;;151.32;67.63;;;;;;;12.90;nan;99246.88;4811845;29;20069;-70
2024/01/01 09:37:53;;;;;;;148.77;67.82;;;;;;;12.79;nan;99241.28;4812436;29;20137;-70
2024/01/01 09:40:23;;;;;;;149.63;65.40;;;;;;;12.81;nan;99241.91;4811993;29;20054;-70
2024/01/01 09:42:53;;;;;;;146.75;64.50;;;;;;;13.06;nan;99243.09;4814779;29;20054;-71
2024/01/01 09:45:25;;;;;;;149.68;69.50;;;;;;;12.80;nan;99237.59;4810778;29;20054;-71
2024/01/01 09:47:54;;;;;;;153.15;67.03;;;;;;;12.79;nan;99234.09;4812503;29;20082;-70
2024/01/01 09:50:24;;;;;;;149.20;70.70;;;;;;;12.73;nan;99231.41;4813504;29;20055;-71
2024/01/01 09:53:00;;;;;;;145.18;67.80;;;;;;;12.83;nan;99229.25;4813287;29;20050;-70
2024/01/01 09:55:31;;;;;;;149.73;66.88;;;;;;;12.89;nan;99225.78;4809137;29;20472;-70
2024/01/01 09:58:00;;;;;;;151.48;68.38;;;;;;;12.99;nan;99226.28;4810007;29;20569;-70
2024/01/01 10:00:30;;;;;;;154.70;68.65;;;;;;;12.97;nan;99225.63;4810095;29;20697;-70
2024/01/01 10:03:10;;;;;;;147.00;66.50;;;;;;;12.65;nan;99234.22;4810033;29;20046;-69
2024/01/01 10:05:41;;;;;;;164.52;68.82;;;;;;;12.47;nan;99219.56;4810882;29;20611;-70
2024/01/01 10:08:15;;;;;;;151.23;68.97;;;;;;;12.62;nan;99222.13;4823681;29;20446;-70
2024/01/01 10:10:45;;;;;;;149.13;68.20;;;;;;;12.57;nan;99214.72;4809073;29;20145;-70
2024/01/01 10:13:16;;;;;;;166.98;68.55;;;;;;;12.51;nan;99218.19;4810415;29;20430;-70
2024/01/01 10:15:57;;;;;;;154.63;65.88;;;;;;;12.38;nan;99215.41;4809541;29;20183;-70
2024/01/01 10:18:27;;;;;;;160.23;70.88;;;;;;;12.46;nan;99219.75;4807275;29;20058;-70
2024/01/01 10:21:13;;;;;;;152.10;69.55;;;;;;;12.47;nan;99216.91;4811129;29;20053;-70
2024/01/01 10:23:46;;;;;;;154.20;66.20;;;;;;;12.51;nan;99206.72;4808335;29;20050;-70
2024/01/01 10:26:18;;;;;;;163.40;70.80;;;;;;;12.53;nan;99210.00;4806199;29;20062;-71
2024/01/01 10:28:47;;;;;;;157.98;70.22;;;;;;;12.49;nan;99214.06;4804924;29;20588;-72
2024/01/01 10:31:17;;;;;;;158.63;68.20;;;;;;;12.24;nan;99212.81;4813383;29;20050;-68
2024/01/01 10:33:49;;;;;;;166.57;70.85;;;;;;;12.38;nan;99212.75;4810401;29;20065;-68
2024/01/01 10:36:20;;;;;;;170.35;70.45;;;;;;;12.43;nan;99213.00;4812047;29;20050;-70
2024/01/01 10:38:51;;;;;;;161.80;68.28;;;;;;;12.42;nan;99218.50;4808237;29;20085;-70
2024/01/01 10:41:21;;;;;;;167.68;70.07;;;;;;;12.29;nan;99205.94;4809032;29;20088;-71
2024/01/01 10:43:51;;;;;;;158.52;69.57;;;;;;;12.28;nan;99209.59;4813855;29;20061;-70
2024/01/01 10:46:22;;;;;;;157.68;66.70;;;;;;;12.25;nan;99206.50;4812742;29;20061;-71
2024/01/01 10:48:52;;;;;;;168.07;68.32;;;;;;;12.37;nan;99208.44;4820814;29;20050;-71
2024/01/01 10:51:33;;;;;;;164.68;69.00;;;;;;;12.00;nan;99198.06;4810394;29;20054;-69
2024/01/01 10:54:23;;;;;;;160.35;68.90;;;;;;;12.36;nan;99204.13;4812630;29;20622;-69
2024/01/01 10:57:15;;;;;;;153.35;65.07;;;;;;;12.30;nan;99198.78;4807733;29;20107;-70
2024/01/01 10:59:57;;;;;;;174.57;69.65;;;;;;;12.07;nan;99204.28;4800634;29;20046;-70
2024/01/01 11:02:28;;;;;;;173.80;72.15;;;;;;;11.97;nan;99201.13;4478294;29;10001346;-69
2024/01/01 11:05:11;;;;;;;175.93;67.85;;;;;;;12.04;nan;99204.66;4811491;29;20149;-72
2024/01/01 11:07:53;;;;;;;183.33;71.23;;;;;;;12.01;nan;99205.03;4472074;29;10000609;-71
2024/01/01 11:10:44;;;;;;;171.43;71.25;;;;;;;11.91;nan;99199.22;4808361;29;21050;-71
2024/01/01 11:13:27;;;;;;;195.18;75.43;;;;;;;11.91;nan;99189.41;4809487;29;20765;-72
2024/01/01 11:15:59;;;;;;;203.73;75.72;;;;;;;11.97;nan;99195.81;4811257;29;20054;-71
2024/01/01 11:18:38;;;;;;;211.95;77.07;;;;;;;11.87;nan;99193.47;4805024;29;20062;-70
2024/01/01 11:21:25;;;;;;;187.13;72.68;;;;;;;11.91;nan;99200.03;4811684;29;20659;-70
2024/01/01 11:23:55;;;;;;;209.48;75.28;;;;;;;11.88;nan;99210.22;4815404;29;20058;-71
2024/01/01 11:26:41;;;;;;;203.90;73.80;;;;;;;11.83;nan;99210.78;4810993;29;20830;-70
2024/01/01 11:29:29;;;;;;;212.90;78.43;;;;;;;11.95;nan;99213.78;4811139;29;20046;-71
2024/01/01 11:32:03;;;;;;;210.85;73.95;;;;;;;11.71;nan;99213.06;4815165;29;20114;-71
2024/01/01 11:34:34;;;;;;;208.05;76.88;;;;;;;11.84;nan;99211.59;4813542;29;20183;-70
2024/01/01 11:37:20;;;;;;;225.55;76.90;;;;;;;11.82;nan;99211.78;4806334;29;20054;-69
2024/01/01 11:40:04;;;;;;;228.13;78.05;;;;;;;12.12;nan;99209.84;4811718;29;20885;-70